createdAt,value
2022-08-17T00:00:53.133Z,557.4
2022-08-17T00:01:55.941Z,557.3
2022-08-17T00:02:59.185Z,557.1
2022-08-17T00:04:01.340Z,557.2
2022-08-17T00:05:03.329Z,556.9
2022-08-17T00:06:05.242Z,557.1
2022-08-17T00:07:07.100Z,556.8
2022-08-17T00:08:08.944Z,556.5
2022-08-17T00:09:19.783Z,556.7
2022-08-17T00:10:21.560Z,556.8
2022-08-17T00:11:23.362Z,556.5
2022-08-17T00:12:45.155Z,556.8
2022-08-17T00:13:47.075Z,556.8
2022-08-17T00:14:48.920Z,556.7
2022-08-17T00:15:50.876Z,556.8
2022-08-17T00:16:58.260Z,557
2022-08-17T00:18:00.210Z,557
2022-08-17T00:19:09.268Z,556.9
2022-08-17T00:20:11.075Z,556.8
2022-08-17T00:21:14.371Z,556.9
2022-08-17T00:22:47.235Z,556.9
2022-08-17T00:23:50.625Z,556.8
2022-08-17T00:24:52.576Z,556.6
2022-08-17T00:25:54.426Z,556.7
2022-08-17T00:26:56.277Z,556.5
2022-08-17T00:28:00.581Z,556.9
2022-08-17T00:29:02.328Z,557
2022-08-17T00:30:04.177Z,556.8
2022-08-17T00:31:05.926Z,556.6
2022-08-17T00:33:24.270Z,556.7
2022-08-17T00:34:33.902Z,556.8
2022-08-17T00:35:35.758Z,556.8
2022-08-17T00:36:37.503Z,557.1
2022-08-17T00:37:39.333Z,557.2
2022-08-17T00:38:41.197Z,557.2
2022-08-17T00:39:43.284Z,557.4
2022-08-17T00:40:45.596Z,557.7
2022-08-17T00:41:47.365Z,557.6
2022-08-17T00:42:50.275Z,557.9
2022-08-17T00:43:52.191Z,558.2
2022-08-17T00:44:54.148Z,558.1
2022-08-17T00:45:55.994Z,557.8
2022-08-17T00:46:57.846Z,557.7
2022-08-17T00:47:59.795Z,558.1
2022-08-17T00:49:01.750Z,558
2022-08-17T00:50:03.600Z,558.3
2022-08-17T00:51:05.581Z,558.3
2022-08-17T00:52:13.134Z,558.3
2022-08-17T00:53:14.990Z,558.2
2022-08-17T00:54:16.938Z,558.3
2022-08-17T00:55:18.787Z,558.3
2022-08-17T00:56:20.639Z,558.3
2022-08-17T00:57:22.491Z,558.1
2022-08-17T00:58:37.246Z,558.2
2022-08-17T00:59:39.297Z,558.5
2022-08-17T01:00:41.536Z,558.4
2022-08-17T01:01:43.403Z,558.5
2022-08-17T01:02:45.498Z,558.5
2022-08-17T01:03:47.316Z,558.4
2022-08-17T01:04:49.159Z,558.4
2022-08-17T01:05:51.339Z,558.7
2022-08-17T01:06:53.472Z,558.9
2022-08-17T01:07:55.254Z,558.5
2022-08-17T01:08:58.609Z,558.8
2022-08-17T01:10:00.557Z,558.5
2022-08-17T01:11:02.923Z,558.2
2022-08-17T01:12:04.771Z,558.2
2022-08-17T01:13:06.625Z,558.1
2022-08-17T01:14:08.598Z,558.5
2022-08-17T01:15:10.424Z,558.6
2022-08-17T01:16:12.272Z,558.5
2022-08-17T01:17:14.122Z,558.4
2022-08-17T01:18:15.974Z,558.3
2022-08-17T01:19:17.825Z,558.2
2022-08-17T01:20:19.674Z,558.5
2022-08-17T01:21:21.522Z,558.5
2022-08-17T01:22:26.061Z,558.3
2022-08-17T01:23:27.883Z,557.9
2022-08-17T01:24:29.734Z,557.8
2022-08-17T01:25:31.587Z,558.3
2022-08-17T01:26:33.444Z,558.1
2022-08-17T01:27:36.206Z,558.2
2022-08-17T01:28:56.361Z,558.2
2022-08-17T01:29:58.242Z,558.5
2022-08-17T01:31:00.328Z,558.5
2022-08-17T01:32:02.140Z,558.5
2022-08-17T01:33:04.002Z,558.8
2022-08-17T01:34:05.850Z,558.8
2022-08-17T01:35:08.842Z,558.7
2022-08-17T01:36:10.673Z,558.9
2022-08-17T01:37:12.528Z,558.8
2022-08-17T01:38:14.373Z,559
2022-08-17T01:39:16.323Z,559
2022-08-17T01:40:18.273Z,559.5
2022-08-17T01:41:20.124Z,559.6
2022-08-17T01:42:22.073Z,559.6
2022-08-17T01:43:23.829Z,559.5
2022-08-17T01:44:28.232Z,559.6
2022-08-17T01:45:30.084Z,559.7
2022-08-17T01:46:32.141Z,559.6
2022-08-17T01:47:36.718Z,559.5
2022-08-17T01:48:38.604Z,559.5
2022-08-17T01:49:40.456Z,559.4
2022-08-17T01:50:42.407Z,559.4
2022-08-17T01:51:44.257Z,559.4
2022-08-17T01:52:46.195Z,559.4
2022-08-17T01:53:48.062Z,559.3
2022-08-17T01:54:49.907Z,559.3
2022-08-17T01:55:51.760Z,559.1
2022-08-17T01:56:53.656Z,558.9
2022-08-17T01:57:55.460Z,559.2
2022-08-17T01:58:57.235Z,559.1
2022-08-17T01:59:59.161Z,558.9
2022-08-17T02:01:02.597Z,558.8
2022-08-17T02:02:04.497Z,558.6
2022-08-17T02:03:06.351Z,558.9
2022-08-17T02:04:08.277Z,558.5
2022-08-17T02:05:10.148Z,558.4
2022-08-17T02:06:28.909Z,558.5
2022-08-17T02:07:31.216Z,558.1
2022-08-17T02:09:04.059Z,558.4
2022-08-17T02:10:20.895Z,558
2022-08-17T02:11:23.862Z,557.7
2022-08-17T02:12:48.200Z,557.9
2022-08-17T02:14:04.289Z,557.8
2022-08-17T02:15:06.119Z,557.7
2022-08-17T02:16:07.979Z,557.8
2022-08-17T02:17:09.919Z,557.7
2022-08-17T02:18:11.776Z,557.9
2022-08-17T02:19:13.622Z,557.4
2022-08-17T02:20:43.049Z,557.5
2022-08-17T02:21:44.868Z,557.5
2022-08-17T02:22:47.025Z,557.7
2022-08-17T02:23:48.873Z,557.6
2022-08-17T02:25:03.119Z,557.7
2022-08-17T02:26:04.967Z,557.6
2022-08-17T02:27:06.921Z,558
2022-08-17T02:28:08.774Z,557.7
2022-08-17T02:29:10.619Z,558
2022-08-17T02:31:03.707Z,557.6
2022-08-17T02:32:05.529Z,558.1
2022-08-17T02:33:09.895Z,557.8
2022-08-17T02:34:11.675Z,557.7
2022-08-17T02:35:13.497Z,557.7
2022-08-17T02:36:15.275Z,557.6
2022-08-17T02:37:17.230Z,557.5
2022-08-17T02:38:19.098Z,557.7
2022-08-17T02:39:20.894Z,557.7
2022-08-17T02:40:37.416Z,557.9
2022-08-17T02:41:39.182Z,557.8
2022-08-17T02:42:40.840Z,557.9
2022-08-17T02:43:42.561Z,557.9
2022-08-17T02:44:44.330Z,557.8
2022-08-17T02:45:46.161Z,557.8
2022-08-17T02:46:48.026Z,558
2022-08-17T02:47:49.872Z,557.7
2022-08-17T02:48:51.608Z,557.4
2022-08-17T02:49:56.771Z,557.7
2022-08-17T02:50:58.517Z,557.5
2022-08-17T02:52:00.154Z,558
2022-08-17T02:53:06.040Z,557.6
2022-08-17T02:54:42.939Z,557.7
2022-08-17T02:55:44.700Z,557.7
2022-08-17T02:56:46.362Z,557.3
2022-08-17T02:57:48.118Z,557.3
2022-08-17T02:58:49.842Z,557.6
2022-08-17T02:59:51.491Z,557.4
2022-08-17T03:00:53.345Z,557.6
2022-08-17T03:01:55.390Z,558
2022-08-17T03:02:57.057Z,557.6
2022-08-17T03:03:58.600Z,557.7
2022-08-17T03:05:00.220Z,557.7
2022-08-17T03:06:01.953Z,557.6
2022-08-17T03:07:03.624Z,557.3
2022-08-17T03:08:05.289Z,556.8
2022-08-17T03:09:06.911Z,557.2
2022-08-17T03:10:08.580Z,557
2022-08-17T03:11:10.120Z,557.1
2022-08-17T03:12:11.848Z,557.2
2022-08-17T03:13:13.509Z,557.1
2022-08-17T03:14:15.211Z,557
2022-08-17T03:15:16.863Z,557
2022-08-17T03:16:18.601Z,556.9
2022-08-17T03:17:21.083Z,557.1
2022-08-17T03:18:26.716Z,556.8
2022-08-17T03:19:28.572Z,556.6
2022-08-17T03:20:30.185Z,556.1
2022-08-17T03:21:31.756Z,556.1
2022-08-17T03:22:38.903Z,556
2022-08-17T03:23:42.264Z,555.8
2022-08-17T03:24:45.226Z,556.2
2022-08-17T03:25:47.012Z,555.8
2022-08-17T03:26:48.571Z,555.8
2022-08-17T03:27:52.070Z,555.8
2022-08-17T03:28:53.759Z,556
2022-08-17T03:29:55.426Z,555.9
2022-08-17T03:30:57.113Z,555.8
2022-08-17T03:31:58.680Z,555.4
2022-08-17T03:33:00.298Z,555.5
2022-08-17T03:34:01.982Z,555.6
2022-08-17T03:35:03.624Z,555.9
2022-08-17T03:36:05.266Z,555.7
2022-08-17T03:37:06.942Z,555.5
2022-08-17T03:38:08.553Z,555.5
2022-08-17T03:39:10.205Z,555.8
2022-08-17T03:40:12.266Z,555.9
2022-08-17T03:41:14.173Z,555.6
2022-08-17T03:42:33.359Z,555.6
2022-08-17T03:43:35.179Z,555.1
2022-08-17T03:44:36.771Z,555.2
2022-08-17T03:45:39.706Z,554.7
2022-08-17T03:46:41.388Z,554.5
2022-08-17T03:47:44.734Z,554.3
2022-08-17T03:48:46.374Z,554.1
2022-08-17T03:49:50.610Z,554.3
2022-08-17T03:50:52.168Z,554.1
2022-08-17T03:51:53.776Z,554.4
2022-08-17T03:52:55.431Z,554.2
2022-08-17T03:53:56.971Z,554.3
2022-08-17T03:54:58.572Z,554.1
2022-08-17T03:56:00.121Z,554.1
2022-08-17T03:57:01.789Z,554.1
2022-08-17T03:58:03.546Z,554.1
2022-08-17T03:59:05.324Z,553.4
2022-08-17T04:00:07.113Z,553.7
2022-08-17T04:01:09.077Z,553.6
2022-08-17T04:02:10.774Z,553.4
2022-08-17T04:03:12.308Z,553.6
2022-08-17T04:04:14.132Z,553.2
2022-08-17T04:05:15.806Z,553.1
2022-08-17T04:06:17.455Z,553.1
2022-08-17T04:07:19.099Z,553.5
2022-08-17T04:08:20.746Z,553.4
2022-08-17T04:09:22.256Z,553.7
2022-08-17T04:10:26.933Z,553.5
2022-08-17T04:11:28.435Z,553.5
2022-08-17T04:12:30.158Z,553.5
2022-08-17T04:13:31.719Z,553.5
2022-08-17T04:14:33.377Z,553.4
2022-08-17T04:15:35.035Z,553.3
2022-08-17T04:16:36.585Z,553.3
2022-08-17T04:17:38.161Z,553.1
2022-08-17T04:18:39.728Z,553
2022-08-17T04:19:41.404Z,552.8
2022-08-17T04:20:42.978Z,552.8
2022-08-17T04:21:44.520Z,553
2022-08-17T04:22:56.026Z,552.9
2022-08-17T04:23:57.659Z,553.1
2022-08-17T04:24:59.424Z,553
2022-08-17T04:26:01.001Z,552.9
2022-08-17T04:27:02.626Z,552.9
2022-08-17T04:28:16.655Z,553
2022-08-17T04:29:18.532Z,552.9
2022-08-17T04:30:20.189Z,553.1
2022-08-17T04:31:21.765Z,552.5
2022-08-17T04:33:19.628Z,552.5
2022-08-17T04:34:21.312Z,552.3
2022-08-17T04:35:23.145Z,552
2022-08-17T04:36:24.705Z,551.8
2022-08-17T04:37:26.253Z,551.8
2022-08-17T04:38:28.083Z,551.9
2022-08-17T04:39:30.108Z,551.7
2022-08-17T04:40:31.797Z,551.5
2022-08-17T04:41:33.342Z,551.5
2022-08-17T04:42:34.934Z,552
2022-08-17T04:43:36.548Z,551.6
2022-08-17T04:44:38.694Z,551.8
2022-08-17T04:45:56.470Z,551.6
2022-08-17T04:46:58.565Z,551.6
2022-08-17T04:48:00.189Z,551.5
2022-08-17T04:49:01.740Z,551.5
2022-08-17T04:50:03.497Z,551.5
2022-08-17T04:51:05.337Z,551.3
2022-08-17T04:52:10.772Z,551.1
2022-08-17T04:53:33.781Z,551.3
2022-08-17T04:54:35.444Z,551
2022-08-17T04:55:37.046Z,551.2
2022-08-17T04:56:38.683Z,551
2022-08-17T04:57:45.725Z,550.9
2022-08-17T04:58:47.310Z,550.4
2022-08-17T04:59:48.866Z,550.2
2022-08-17T05:00:50.903Z,550
2022-08-17T05:01:52.831Z,550.1
2022-08-17T05:02:55.836Z,550.1
2022-08-17T05:03:57.517Z,550
2022-08-17T05:05:00.524Z,550.1
2022-08-17T05:06:02.216Z,550.1
2022-08-17T05:07:03.902Z,550
2022-08-17T05:08:05.928Z,550.1
2022-08-17T05:09:07.708Z,550.3
2022-08-17T05:10:09.365Z,550.4
2022-08-17T05:11:11.096Z,550.6
2022-08-17T05:12:12.776Z,550.8
2022-08-17T05:13:14.313Z,550.8
2022-08-17T05:14:15.936Z,550.6
2022-08-17T05:15:19.949Z,550.4
2022-08-17T05:16:24.250Z,550.6
2022-08-17T05:17:25.822Z,550.3
2022-08-17T05:18:27.464Z,550.2
2022-08-17T05:19:29.172Z,550.1
2022-08-17T05:20:30.785Z,549.9
2022-08-17T05:21:32.483Z,549.6
2022-08-17T05:22:34.015Z,549.7
2022-08-17T05:23:54.776Z,549.7
2022-08-17T05:24:58.323Z,549.5
2022-08-17T05:26:02.408Z,549.9
2022-08-17T05:27:07.317Z,549.7
2022-08-17T05:28:09.821Z,549.4
2022-08-17T05:29:11.460Z,549.3
2022-08-17T05:30:13.276Z,549.5
2022-08-17T05:31:15.044Z,549.7
2022-08-17T05:32:40.777Z,549.9
2022-08-17T05:33:46.799Z,549.9
2022-08-17T05:34:48.339Z,550
2022-08-17T05:35:50.173Z,549.8
2022-08-17T05:36:51.718Z,549.5
2022-08-17T05:37:57.971Z,549.4
2022-08-17T05:39:00.140Z,549.5
2022-08-17T05:40:02.522Z,549.3
2022-08-17T05:41:04.278Z,549.6
2022-08-17T05:42:05.986Z,549.5
2022-08-17T05:43:07.632Z,549.6
2022-08-17T05:44:09.294Z,549.7
2022-08-17T05:45:10.969Z,549.7
2022-08-17T05:46:12.549Z,549.9
2022-08-17T05:47:14.094Z,549.3
2022-08-17T05:48:15.746Z,549.4
2022-08-17T05:49:17.327Z,549.8
2022-08-17T05:50:30.104Z,549.7
2022-08-17T05:51:31.823Z,549.7
2022-08-17T05:52:33.617Z,550
2022-08-17T05:53:43.252Z,550
2022-08-17T05:54:47.782Z,550.1
2022-08-17T05:55:49.529Z,550.1
2022-08-17T05:56:51.103Z,550.1
2022-08-17T05:57:56.540Z,549.8
2022-08-17T05:58:58.542Z,549.9
2022-08-17T06:00:00.269Z,550
2022-08-17T06:01:02.281Z,550
2022-08-17T06:02:03.944Z,549.8
2022-08-17T06:03:05.719Z,549.7
2022-08-17T06:04:07.275Z,549.9
2022-08-17T06:05:09.419Z,550
2022-08-17T06:06:11.983Z,550
2022-08-17T06:07:13.528Z,549.9
2022-08-17T06:08:15.301Z,550.1
2022-08-17T06:09:34.155Z,550.2
2022-08-17T06:10:35.868Z,550.3
2022-08-17T06:11:37.769Z,550.1
2022-08-17T06:12:39.309Z,550.1
2022-08-17T06:13:40.946Z,550.1
2022-08-17T06:14:42.682Z,549.9
2022-08-17T06:15:44.224Z,550
2022-08-17T06:16:45.760Z,549.9
2022-08-17T06:17:47.427Z,550.4
2022-08-17T06:18:48.967Z,549.8
2022-08-17T06:19:50.787Z,550
2022-08-17T06:20:52.371Z,550.1
2022-08-17T06:21:53.939Z,550.2
2022-08-17T06:22:55.520Z,550.3
2022-08-17T06:23:57.556Z,550.4
2022-08-17T06:24:59.211Z,550.2
2022-08-17T06:26:00.862Z,550.3
2022-08-17T06:27:02.498Z,550.2
2022-08-17T06:28:04.114Z,550.6
2022-08-17T06:29:19.208Z,550.1
2022-08-17T06:30:23.529Z,550.1
2022-08-17T06:31:25.201Z,549.9
2022-08-17T06:32:26.907Z,549.9
2022-08-17T06:33:28.451Z,549.9
2022-08-17T06:34:30.093Z,550
2022-08-17T06:35:34.604Z,550.2
2022-08-17T06:36:36.288Z,549.9
2022-08-17T06:37:37.820Z,549.8
2022-08-17T06:38:39.477Z,549.8
2022-08-17T06:39:41.530Z,550
2022-08-17T06:40:43.360Z,550.1
2022-08-17T06:41:44.923Z,549.7
2022-08-17T06:43:07.918Z,550.2
2022-08-17T06:44:09.622Z,550.1
2022-08-17T06:45:11.357Z,550.1
2022-08-17T06:46:12.906Z,549.7
2022-08-17T06:47:29.597Z,550.2
2022-08-17T06:48:31.315Z,549.8
2022-08-17T06:49:32.900Z,550.3
2022-08-17T06:50:34.547Z,549.9
2022-08-17T06:51:36.258Z,550.2
2022-08-17T06:52:57.295Z,550.1
2022-08-17T06:53:59.147Z,550.5
2022-08-17T06:55:00.754Z,550.3
2022-08-17T06:56:02.392Z,550.6
2022-08-17T06:57:04.080Z,550.5
2022-08-17T06:58:17.295Z,550.8
2022-08-17T06:59:18.839Z,550.5
2022-08-17T07:00:20.404Z,550.3
2022-08-17T07:01:22.539Z,550.5
2022-08-17T07:02:53.733Z,550.3
2022-08-17T07:03:55.400Z,550.3
2022-08-17T07:04:56.941Z,550.1
2022-08-17T07:05:59.383Z,550.1
2022-08-17T07:07:01.070Z,550.2
2022-08-17T07:08:02.778Z,550
2022-08-17T07:09:04.655Z,550.1
2022-08-17T07:10:06.400Z,550.1
2022-08-17T07:11:08.069Z,550.1
2022-08-17T07:12:09.701Z,550.4
2022-08-17T07:13:11.336Z,550.5
2022-08-17T07:14:17.990Z,550.5
2022-08-17T07:15:19.626Z,550.3
2022-08-17T07:16:21.379Z,550.2
2022-08-17T07:17:48.935Z,550.8
2022-08-17T07:18:50.644Z,550.7
2022-08-17T07:19:55.967Z,550.9
2022-08-17T07:20:57.544Z,550.9
2022-08-17T07:21:59.336Z,550.9
2022-08-17T07:23:01.761Z,550.7
2022-08-17T07:24:03.511Z,550.9
2022-08-17T07:25:05.253Z,550.8
2022-08-17T07:26:06.799Z,550.7
2022-08-17T07:27:08.645Z,550.8
2022-08-17T07:28:10.276Z,550.8
2022-08-17T07:29:11.899Z,550.6
2022-08-17T07:30:13.649Z,550.2
2022-08-17T07:31:15.215Z,550.5
2022-08-17T07:32:16.808Z,550.7
2022-08-17T07:33:19.144Z,550.7
2022-08-17T07:34:20.788Z,550.7
2022-08-17T07:35:22.539Z,550.9
2022-08-17T07:36:30.564Z,550.7
2022-08-17T07:37:32.120Z,550.5
2022-08-17T07:38:33.807Z,550.6
2022-08-17T07:40:17.317Z,550.8
2022-08-17T07:41:18.988Z,551.2
2022-08-17T07:42:20.752Z,551.1
2022-08-17T07:43:24.312Z,551
2022-08-17T07:44:25.882Z,551.3
2022-08-17T07:45:27.541Z,551.4
2022-08-17T07:46:29.263Z,551.3
2022-08-17T07:47:30.965Z,551.6
2022-08-17T07:48:32.552Z,551.7
2022-08-17T07:49:34.188Z,551.8
2022-08-17T07:50:37.652Z,551.5
2022-08-17T07:51:39.468Z,551.8
2022-08-17T07:52:52.986Z,551.4
2022-08-17T07:53:54.675Z,551.6
2022-08-17T07:55:00.263Z,551.8
2022-08-17T07:56:01.939Z,551.8
2022-08-17T07:57:03.545Z,551.7
2022-08-17T07:58:05.097Z,551.7
2022-08-17T07:59:08.247Z,551.5
2022-08-17T08:00:17.165Z,551.6
2022-08-17T08:01:19.755Z,552
2022-08-17T08:02:34.176Z,552
2022-08-17T08:03:42.486Z,551.9
2022-08-17T08:05:02.734Z,551.8
2022-08-17T08:06:04.333Z,552
2022-08-17T08:07:05.992Z,552.1
2022-08-17T08:08:07.536Z,552.1
2022-08-17T08:09:09.078Z,551.8
2022-08-17T08:10:10.713Z,552.3
2022-08-17T08:11:12.386Z,552.5
2022-08-17T08:12:17.292Z,552.2
2022-08-17T08:13:18.856Z,552.6
2022-08-17T08:14:20.540Z,552
2022-08-17T08:15:22.305Z,552.3
2022-08-17T08:16:24.034Z,552.4
2022-08-17T08:17:25.704Z,552.1
2022-08-17T08:18:58.615Z,552.4
2022-08-17T08:20:53.789Z,552.3
2022-08-17T08:21:55.754Z,552.5
2022-08-17T08:22:57.395Z,552.5
2022-08-17T08:23:59.021Z,552.4
2022-08-17T08:25:00.612Z,552.4
2022-08-17T08:26:03.114Z,552.4
2022-08-17T08:27:04.787Z,552.8
2022-08-17T08:28:06.498Z,552.9
2022-08-17T08:29:08.326Z,552.6
2022-08-17T08:30:10.106Z,552.7
2022-08-17T08:31:11.681Z,552.6
2022-08-17T08:32:13.321Z,552.7
2022-08-17T08:33:14.928Z,553.2
2022-08-17T08:35:04.125Z,553.4
2022-08-17T08:36:05.751Z,553
2022-08-17T08:37:42.623Z,553.3
2022-08-17T08:38:44.594Z,553.3
2022-08-17T08:39:46.592Z,553.1
2022-08-17T08:40:48.401Z,553.5
2022-08-17T08:41:49.946Z,554.1
2022-08-17T08:42:51.487Z,553.5
2022-08-17T08:43:53.923Z,553.7
2022-08-17T08:45:06.016Z,554
2022-08-17T08:46:07.795Z,553.5
2022-08-17T08:47:09.334Z,553.6
2022-08-17T08:49:03.798Z,553.4
2022-08-17T08:50:39.101Z,553.8
2022-08-17T08:51:40.780Z,554.2
2022-08-17T08:52:42.500Z,554.2
2022-08-17T08:53:44.034Z,554.1
2022-08-17T08:54:45.714Z,554.1
2022-08-17T08:55:47.382Z,554.4
2022-08-17T08:57:34.898Z,554
2022-08-17T08:58:43.280Z,554.1
2022-08-17T08:59:59.034Z,554
2022-08-17T09:01:01.043Z,554.2
2022-08-17T09:02:02.754Z,554.5
2022-08-17T09:03:04.482Z,554.6
2022-08-17T09:04:26.303Z,554.9
2022-08-17T09:05:28.230Z,554.4
2022-08-17T09:06:40.597Z,554.8
2022-08-17T09:07:42.266Z,554.2
2022-08-17T09:08:44.087Z,554.1
2022-08-17T09:09:45.729Z,554.3
2022-08-17T09:10:47.370Z,554.8
2022-08-17T09:12:04.644Z,555.1
2022-08-17T09:13:11.847Z,555.1
2022-08-17T09:14:29.553Z,555.1
2022-08-17T09:15:31.102Z,555.3
2022-08-17T09:16:32.735Z,555.4
2022-08-17T09:17:34.408Z,555.1
2022-08-17T09:19:05.840Z,555.7
2022-08-17T09:20:07.616Z,555.5
2022-08-17T09:21:09.332Z,555.5
2022-08-17T09:22:10.972Z,555.6
2022-08-17T09:23:12.527Z,555.2
2022-08-17T09:24:21.271Z,555.1
2022-08-17T09:25:22.903Z,555.8
2022-08-17T09:26:24.443Z,556.1
2022-08-17T09:27:26.103Z,555.5
2022-08-17T09:28:27.697Z,555.5
2022-08-17T09:29:29.318Z,555.4
2022-08-17T09:30:30.855Z,555.6
2022-08-17T09:31:34.095Z,555.6
2022-08-17T09:32:35.811Z,555.7
2022-08-17T09:33:37.340Z,556
2022-08-17T09:34:48.660Z,555.6
2022-08-17T09:35:50.248Z,555.2
2022-08-17T09:36:51.775Z,555.1
2022-08-17T09:37:53.462Z,555.3
2022-08-17T09:38:55.105Z,555.6
2022-08-17T09:39:57.210Z,555.4
2022-08-17T09:40:58.857Z,555.7
2022-08-17T09:42:00.652Z,556.1
2022-08-17T09:43:02.228Z,555.5
2022-08-17T09:44:03.897Z,555.4
2022-08-17T09:45:05.538Z,555.3
2022-08-17T09:46:07.262Z,555.7
2022-08-17T09:47:08.926Z,556
2022-08-17T09:48:10.538Z,555.6
2022-08-17T09:49:12.290Z,555.4
2022-08-17T09:50:13.948Z,555.5
2022-08-17T09:51:15.669Z,555.3
2022-08-17T09:52:18.747Z,555.9
2022-08-17T09:53:20.276Z,555.5
2022-08-17T09:54:41.234Z,555.3
2022-08-17T09:55:42.819Z,556
2022-08-17T09:57:30.158Z,555.8
2022-08-17T09:58:32.507Z,555.5
2022-08-17T09:59:42.247Z,556.5
2022-08-17T10:00:44.326Z,556.3
2022-08-17T10:01:46.210Z,556.4
2022-08-17T10:02:47.989Z,556.4
2022-08-17T10:03:49.585Z,556.3
2022-08-17T10:04:51.226Z,556.6
2022-08-17T10:05:57.645Z,557
2022-08-17T10:06:59.272Z,556.8
2022-08-17T10:08:00.822Z,556.7
2022-08-17T10:09:02.489Z,556.3
2022-08-17T10:10:04.222Z,556.8
2022-08-17T10:11:06.598Z,557
2022-08-17T10:12:09.768Z,557.4
2022-08-17T10:13:12.970Z,556.8
2022-08-17T10:14:55.111Z,556.8
2022-08-17T10:15:57.104Z,557.2
2022-08-17T10:16:58.675Z,557.1
2022-08-17T10:18:00.221Z,557.1
2022-08-17T10:19:01.908Z,557.2
2022-08-17T10:20:03.697Z,557.5
2022-08-17T10:21:05.464Z,557.8
2022-08-17T10:22:38.508Z,557.8
2022-08-17T10:23:40.460Z,557.7
2022-08-17T10:25:53.880Z,557.6
2022-08-17T10:26:57.996Z,557.7
2022-08-17T10:27:59.574Z,557.6
2022-08-17T10:29:01.178Z,558.5
2022-08-17T10:30:02.826Z,558.3
2022-08-17T10:31:36.623Z,557.9
2022-08-17T10:32:38.371Z,558.1
2022-08-17T10:33:40.007Z,558.1
2022-08-17T10:34:42.398Z,557.9
2022-08-17T10:35:44.067Z,558
2022-08-17T10:36:45.706Z,558
2022-08-17T10:37:47.637Z,558.8
2022-08-17T10:38:49.386Z,558.3
2022-08-17T10:39:53.820Z,558.3
2022-08-17T10:40:55.646Z,558.1
2022-08-17T10:41:57.298Z,558.3
2022-08-17T10:42:59.139Z,558.6
2022-08-17T10:44:41.851Z,558.6
2022-08-17T10:45:47.487Z,558.6
2022-08-17T10:46:49.157Z,559.1
2022-08-17T10:48:06.473Z,559.9
2022-08-17T10:49:08.459Z,559.6
2022-08-17T10:50:10.114Z,559.5
2022-08-17T10:51:12.508Z,559.6
2022-08-17T10:52:14.858Z,559.4
2022-08-17T10:53:20.604Z,559.4
2022-08-17T10:54:23.072Z,559.6
2022-08-17T10:55:24.651Z,559.6
2022-08-17T10:56:26.347Z,559.7
2022-08-17T10:57:28.036Z,559.7
2022-08-17T10:58:29.662Z,560.2
2022-08-17T10:59:31.202Z,559.8
2022-08-17T11:00:32.871Z,559.8
2022-08-17T11:01:35.161Z,559.8
2022-08-17T11:02:36.963Z,560.1
2022-08-17T11:03:38.562Z,560.1
2022-08-17T11:04:40.246Z,560
2022-08-17T11:05:44.841Z,560.2
2022-08-17T11:06:46.426Z,560.3
2022-08-17T11:07:47.957Z,560.4
2022-08-17T11:08:49.674Z,560.1
2022-08-17T11:09:51.339Z,560.6
2022-08-17T11:10:52.909Z,560.5
2022-08-17T11:11:54.529Z,560
2022-08-17T11:12:56.374Z,560
2022-08-17T11:13:58.008Z,560
2022-08-17T11:14:59.766Z,560.5
2022-08-17T11:16:08.992Z,559.9
2022-08-17T11:17:12.761Z,560.1
2022-08-17T11:18:14.353Z,560.2
2022-08-17T11:19:15.889Z,560
2022-08-17T11:20:17.549Z,560
2022-08-17T11:21:19.105Z,560.1
2022-08-17T11:22:20.811Z,560.4
2022-08-17T11:23:22.337Z,559.9
2022-08-17T11:24:24.385Z,560.7
2022-08-17T11:25:26.072Z,560.4
2022-08-17T11:26:27.803Z,560.2
2022-08-17T11:27:29.354Z,560
2022-08-17T11:28:31.073Z,560.6
2022-08-17T11:29:37.221Z,561.3
2022-08-17T11:30:38.728Z,560.4
2022-08-17T11:31:41.657Z,560.8
2022-08-17T11:32:56.046Z,560.9
2022-08-17T11:33:58.279Z,560.7
2022-08-17T11:35:00.021Z,560.5
2022-08-17T11:36:01.619Z,560.4
2022-08-17T11:37:03.491Z,560.9
2022-08-17T11:38:09.690Z,560.3
2022-08-17T11:39:15.825Z,559.9
2022-08-17T11:40:17.995Z,559.5
2022-08-17T11:41:19.817Z,559.6
2022-08-17T11:42:21.497Z,559.4
2022-08-17T11:43:26.171Z,559.4
2022-08-17T11:44:27.840Z,559.3
2022-08-17T11:45:33.540Z,559.4
2022-08-17T11:46:35.092Z,559.8
2022-08-17T11:47:36.786Z,559.8
2022-08-17T11:48:38.368Z,559.7
2022-08-17T11:49:40.248Z,559.1
2022-08-17T11:50:41.861Z,559.1
2022-08-17T11:51:43.490Z,559
2022-08-17T11:52:47.511Z,558.8
2022-08-17T11:53:49.268Z,559
2022-08-17T11:54:50.820Z,558.3
2022-08-17T11:55:52.756Z,558.4
2022-08-17T11:56:54.478Z,558.5
2022-08-17T11:57:56.296Z,558
2022-08-17T11:58:57.864Z,558
2022-08-17T11:59:59.851Z,558
2022-08-17T12:01:01.718Z,557.7
2022-08-17T12:02:03.491Z,558.1
2022-08-17T12:03:05.428Z,558
2022-08-17T12:04:07.390Z,557.9
2022-08-17T12:05:12.772Z,557.8
2022-08-17T12:06:14.363Z,558
2022-08-17T12:07:15.896Z,557.2
2022-08-17T12:08:17.633Z,557.4
2022-08-17T12:09:19.754Z,557.5
2022-08-17T12:10:21.373Z,557.3
2022-08-17T12:12:15.087Z,557.3
2022-08-17T12:13:17.717Z,557.2
2022-08-17T12:15:11.304Z,556.5
2022-08-17T12:16:13.261Z,556.6
2022-08-17T12:17:53.667Z,556.7
2022-08-17T12:18:55.388Z,556.8
2022-08-17T12:19:57.018Z,556.9
2022-08-17T12:20:58.573Z,556.8
2022-08-17T12:22:00.307Z,556.9
2022-08-17T12:23:02.156Z,557.1
2022-08-17T12:24:03.737Z,556.8
2022-08-17T12:25:05.457Z,557
2022-08-17T12:26:07.053Z,557
2022-08-17T12:27:08.621Z,557.4
2022-08-17T12:28:11.939Z,557.4
2022-08-17T12:29:39.574Z,557.7
2022-08-17T12:30:41.322Z,557.5
2022-08-17T12:31:43.072Z,558
2022-08-17T12:32:44.631Z,558.2
2022-08-17T12:33:46.183Z,558.1
2022-08-17T12:34:47.857Z,558.5
2022-08-17T12:35:59.907Z,557.9
2022-08-17T12:37:01.647Z,558
2022-08-17T12:38:04.238Z,557.9
2022-08-17T12:39:25.188Z,557.8
2022-08-17T12:40:28.017Z,558.1
2022-08-17T12:41:29.735Z,558.5
2022-08-17T12:42:31.381Z,558.1
2022-08-17T12:43:33.220Z,558.8
2022-08-17T12:44:50.902Z,558.9
2022-08-17T12:45:52.586Z,558.7
2022-08-17T12:46:54.472Z,558.9
2022-08-17T12:47:56.309Z,559.2
2022-08-17T12:49:00.698Z,559.2
2022-08-17T12:50:02.253Z,558.9
2022-08-17T12:51:04.058Z,559
2022-08-17T12:52:05.596Z,559.4
2022-08-17T12:53:07.144Z,559.5
2022-08-17T12:54:11.808Z,559.3
2022-08-17T12:55:13.479Z,559.2
2022-08-17T12:56:15.203Z,559.8
2022-08-17T12:57:16.931Z,559.5
2022-08-17T12:58:18.480Z,559.9
2022-08-17T12:59:33.325Z,560.3
2022-08-17T13:00:35.101Z,560.1
2022-08-17T13:01:37.058Z,560.2
2022-08-17T13:02:38.809Z,560.2
2022-08-17T13:03:40.345Z,560.1
2022-08-17T13:04:42.209Z,560.2
2022-08-17T13:05:43.856Z,560.5
2022-08-17T13:06:45.552Z,560.4
2022-08-17T13:07:47.905Z,560.5
2022-08-17T13:08:49.610Z,560.4
2022-08-17T13:09:51.353Z,560.8
2022-08-17T13:10:53.010Z,561.4
2022-08-17T13:11:54.811Z,561
2022-08-17T13:12:56.564Z,560.7
2022-08-17T13:13:58.200Z,560.9
2022-08-17T13:14:59.820Z,560.9
2022-08-17T13:16:01.475Z,560.4
2022-08-17T13:17:03.138Z,560.5
2022-08-17T13:18:04.714Z,561
2022-08-17T13:19:06.376Z,560.8
2022-08-17T13:20:08.015Z,560.9
2022-08-17T13:21:09.631Z,560.5
2022-08-17T13:22:11.233Z,560.4
2022-08-17T13:23:13.148Z,560.8
2022-08-17T13:24:14.867Z,560.5
2022-08-17T13:25:16.733Z,560.4
2022-08-17T13:26:18.359Z,560.6
2022-08-17T13:27:20.105Z,560.6
2022-08-17T13:28:37.033Z,560.6
2022-08-17T13:29:38.634Z,560.3
2022-08-17T13:30:40.215Z,559.7
2022-08-17T13:32:05.345Z,560.3
2022-08-17T13:33:28.641Z,560.2
2022-08-17T13:35:40.440Z,560.5
2022-08-17T13:36:51.000Z,560.5
2022-08-17T13:37:53.145Z,560.5
2022-08-17T13:38:54.767Z,560.5
2022-08-17T13:39:56.936Z,560.2
2022-08-17T13:40:58.596Z,560.4
2022-08-17T13:42:00.445Z,560.7
2022-08-17T13:43:02.105Z,560.7
2022-08-17T13:44:03.772Z,560.8
2022-08-17T13:45:39.894Z,560.7
2022-08-17T13:46:43.791Z,560.4
2022-08-17T13:47:45.469Z,560.3
2022-08-17T13:48:47.195Z,560.7
2022-08-17T13:49:50.051Z,560.7
2022-08-17T13:50:51.708Z,560.8
2022-08-17T13:51:57.441Z,560.6
2022-08-17T13:52:59.698Z,560.9
2022-08-17T13:54:01.552Z,561.2
2022-08-17T13:55:03.295Z,561.2
2022-08-17T13:56:05.179Z,561
2022-08-17T13:57:06.710Z,561.2
2022-08-17T13:58:08.894Z,561.1